createdAt,value
2019-03-20T00:00:54.869Z,18.83
2019-03-20T00:01:55.120Z,18.83
2019-03-20T00:02:55.291Z,18.81
2019-03-20T00:03:54.925Z,18.83
2019-03-20T00:04:54.870Z,18.83
2019-03-20T00:05:54.991Z,18.81
2019-03-20T00:06:54.919Z,18.8
2019-03-20T00:07:55.002Z,18.81
2019-03-20T00:08:54.863Z,18.83
2019-03-20T00:09:55.138Z,18.8
2019-03-20T00:10:55.069Z,18.83
2019-03-20T00:11:55.110Z,18.77
2019-03-20T00:12:54.822Z,18.78
2019-03-20T00:13:55.091Z,18.8
2019-03-20T00:14:55.115Z,18.78
2019-03-20T00:15:55.142Z,18.75
2019-03-20T00:16:54.812Z,18.78
2019-03-20T00:17:54.784Z,18.77
2019-03-20T00:18:54.854Z,18.78
2019-03-20T00:19:54.822Z,18.78
2019-03-20T00:20:54.832Z,18.77
2019-03-20T00:21:54.849Z,18.75
2019-03-20T00:22:54.857Z,18.75
2019-03-20T00:23:55.217Z,18.75
2019-03-20T00:24:54.897Z,18.77
2019-03-20T00:25:54.895Z,18.77
2019-03-20T00:26:54.866Z,18.75
2019-03-20T00:27:54.932Z,18.74
2019-03-20T00:28:54.971Z,18.75
2019-03-20T00:29:54.928Z,18.74
2019-03-20T00:30:54.997Z,18.74
2019-03-20T00:31:55.098Z,18.75
2019-03-20T00:32:55.162Z,18.73
2019-03-20T00:33:54.996Z,18.73
2019-03-20T00:35:01.709Z,18.73
2019-03-20T00:35:54.834Z,18.73
2019-03-20T00:36:54.827Z,18.73
2019-03-20T00:37:54.946Z,18.73
2019-03-20T00:38:55.056Z,18.7
2019-03-20T00:39:54.914Z,18.71
2019-03-20T00:40:55.147Z,18.71
2019-03-20T00:41:54.871Z,18.71
2019-03-20T00:42:54.907Z,18.7
2019-03-20T00:43:54.916Z,18.68
2019-03-20T00:44:54.994Z,18.71
2019-03-20T00:45:55.041Z,18.73
2019-03-20T00:46:55.017Z,18.7
2019-03-20T00:47:55.061Z,18.68
2019-03-20T00:48:54.990Z,18.68
2019-03-20T00:49:55.097Z,18.68
2019-03-20T00:50:55.022Z,18.68
2019-03-20T00:51:55.121Z,18.68
2019-03-20T00:52:54.797Z,18.68
2019-03-20T00:53:54.779Z,18.68
2019-03-20T00:54:54.777Z,18.67
2019-03-20T00:55:54.990Z,18.7
2019-03-20T00:56:54.825Z,18.67
2019-03-20T00:57:54.877Z,18.67
2019-03-20T00:58:54.858Z,18.66
2019-03-20T00:59:54.833Z,18.67
2019-03-20T01:00:54.911Z,18.64
2019-03-20T01:01:55.065Z,18.66
2019-03-20T01:02:55.038Z,18.63
2019-03-20T01:03:54.760Z,18.66
2019-03-20T01:04:54.949Z,18.67
2019-03-20T01:05:54.947Z,18.66
2019-03-20T01:06:54.991Z,18.64
2019-03-20T01:07:54.993Z,18.63
2019-03-20T01:08:55.052Z,18.63
2019-03-20T01:09:55.060Z,18.64
2019-03-20T01:10:54.802Z,18.66
2019-03-20T01:11:54.791Z,18.66
2019-03-20T01:12:54.837Z,18.63
2019-03-20T01:13:54.811Z,18.64
2019-03-20T01:14:54.834Z,18.62
2019-03-20T01:15:55.024Z,18.62
2019-03-20T01:16:54.838Z,18.62
2019-03-20T01:17:54.867Z,18.62
2019-03-20T01:18:54.878Z,18.63
2019-03-20T01:19:54.906Z,18.62
2019-03-20T01:20:55.024Z,18.62
2019-03-20T01:21:54.950Z,18.6
2019-03-20T01:22:54.961Z,18.58
2019-03-20T01:23:54.943Z,18.58
2019-03-20T01:24:55.017Z,18.58
2019-03-20T01:25:54.995Z,18.6
2019-03-20T01:26:54.994Z,18.6
2019-03-20T01:27:55.210Z,18.58
2019-03-20T01:28:54.761Z,18.58
2019-03-20T01:29:54.760Z,18.57
2019-03-20T01:30:54.844Z,18.58
2019-03-20T01:31:54.945Z,18.57
2019-03-20T01:32:54.782Z,18.58
2019-03-20T01:33:55.244Z,18.6
2019-03-20T01:34:54.818Z,18.6
2019-03-20T01:35:54.828Z,18.57
2019-03-20T01:36:54.984Z,18.58
2019-03-20T01:37:56.021Z,18.57
2019-03-20T01:38:54.995Z,18.53
2019-03-20T01:39:55.002Z,18.58
2019-03-20T01:40:54.973Z,18.57
2019-03-20T01:41:54.954Z,18.54
2019-03-20T01:42:54.943Z,18.54
2019-03-20T01:43:54.942Z,18.54
2019-03-20T01:44:54.951Z,18.53
2019-03-20T01:45:54.794Z,18.54
2019-03-20T01:46:54.808Z,18.56
2019-03-20T01:47:54.795Z,18.54
2019-03-20T01:48:54.822Z,18.56
2019-03-20T01:49:54.926Z,18.54
2019-03-20T01:50:55.026Z,18.56
2019-03-20T01:51:54.843Z,18.56
2019-03-20T01:52:54.912Z,18.56
2019-03-20T01:53:55.033Z,18.53
2019-03-20T01:54:54.899Z,18.51
2019-03-20T01:55:54.986Z,18.51
2019-03-20T01:56:54.908Z,18.53
2019-03-20T01:57:55.036Z,18.5
2019-03-20T01:58:54.959Z,18.51
2019-03-20T01:59:55.060Z,18.53
2019-03-20T02:00:54.999Z,18.5
2019-03-20T02:01:54.985Z,18.5
2019-03-20T02:02:54.734Z,18.51
2019-03-20T02:03:54.770Z,18.51
2019-03-20T02:04:54.750Z,18.49
2019-03-20T02:05:54.775Z,18.49
2019-03-20T02:06:54.838Z,18.5
2019-03-20T04:06:54.872Z,18.23
2019-03-20T04:07:54.734Z,18.25
2019-03-20T04:08:54.820Z,18.22
2019-03-20T04:09:54.820Z,18.23
2019-03-20T04:11:54.837Z,18.23
2019-03-20T04:12:54.898Z,18.23
2019-03-20T04:13:54.824Z,18.21
2019-03-20T04:14:54.786Z,18.23
2019-03-20T04:16:54.970Z,18.21
2019-03-20T04:18:55.015Z,18.19
2019-03-20T04:20:54.971Z,18.19
2019-03-20T04:21:55.245Z,18.22
2019-03-20T04:22:54.974Z,18.23
2019-03-20T04:23:54.810Z,18.21
2019-03-20T04:25:54.717Z,18.21
2019-03-20T04:26:54.822Z,18.21
2019-03-20T04:28:54.764Z,18.18
2019-03-20T04:30:54.799Z,18.19
2019-03-20T04:31:54.793Z,18.19
2019-03-20T04:32:54.833Z,18.18
2019-03-20T04:35:54.889Z,18.19
2019-03-20T04:36:54.870Z,18.18
2019-03-20T04:37:54.904Z,18.19
2019-03-20T04:40:54.924Z,18.19
2019-03-20T04:41:54.726Z,18.19
2019-03-20T04:42:54.751Z,18.21
2019-03-20T04:43:54.811Z,18.23
2019-03-20T04:45:54.865Z,18.23
2019-03-20T04:47:54.889Z,18.23
2019-03-20T04:48:54.845Z,18.23
2019-03-20T04:49:54.809Z,18.26
2019-03-20T04:50:54.833Z,18.28
2019-03-20T04:52:54.852Z,18.28
2019-03-20T04:53:54.867Z,18.3
2019-03-20T04:54:54.882Z,18.32
2019-03-20T04:55:54.990Z,18.32
2019-03-20T04:58:54.674Z,18.35
2019-03-20T04:59:54.685Z,18.35
2019-03-20T05:00:54.798Z,18.39
2019-03-20T05:01:54.703Z,18.4
2019-03-20T05:03:54.718Z,18.4
2019-03-20T05:05:54.885Z,18.47
2019-03-20T05:06:59.702Z,18.5
2019-03-20T05:07:54.777Z,18.5
2019-03-20T05:08:55.145Z,18.53
2019-03-20T05:10:54.844Z,18.57
2019-03-20T05:11:54.852Z,18.58
2019-03-20T05:12:54.856Z,18.58
2019-03-20T05:14:54.887Z,18.62
2019-03-20T05:16:54.691Z,18.66
2019-03-20T05:17:54.734Z,18.7
2019-03-20T05:18:54.727Z,18.73
2019-03-20T05:20:54.759Z,18.75
2019-03-20T05:21:54.835Z,18.77
2019-03-20T05:22:54.807Z,18.78
2019-03-20T05:23:54.769Z,18.81
2019-03-20T05:25:54.846Z,18.84
2019-03-20T05:26:54.934Z,18.85
2019-03-20T05:27:55.296Z,18.87
2019-03-20T05:28:54.840Z,18.87
2019-03-20T05:30:54.949Z,18.91
2019-03-20T05:31:54.991Z,18.94
2019-03-20T05:34:54.683Z,19.01
2019-03-20T05:35:54.713Z,18.99
2019-03-20T05:37:54.663Z,19.03
2019-03-20T05:38:54.681Z,19.05
2019-03-20T05:39:54.747Z,19.06
2019-03-20T05:40:54.736Z,19.08
2019-03-20T05:42:54.768Z,19.08
2019-03-20T05:44:54.891Z,19.12
2019-03-20T05:45:54.814Z,19.12
2019-03-20T05:46:54.844Z,19.13
2019-03-20T05:47:54.992Z,19.15
2019-03-20T05:49:54.837Z,19.16
2019-03-20T05:50:54.979Z,19.18
2019-03-20T05:51:54.929Z,19.19
2019-03-20T05:53:54.766Z,19.2
2019-03-20T05:54:54.704Z,19.2
2019-03-20T05:55:54.692Z,19.22
2019-03-20T05:56:54.750Z,19.22
2019-03-20T05:59:54.919Z,19.22
2019-03-20T06:00:54.785Z,19.25
2019-03-20T06:03:54.819Z,19.26
2019-03-20T06:04:54.813Z,19.29
2019-03-20T06:05:54.829Z,19.27
2019-03-20T06:06:54.873Z,19.27
2019-03-20T06:09:54.869Z,19.29
2019-03-20T06:10:55.164Z,19.29
2019-03-20T06:12:54.645Z,19.29
2019-03-20T06:13:54.704Z,19.3
2019-03-20T06:15:54.652Z,19.3
2019-03-20T06:16:54.927Z,19.3
2019-03-20T06:17:54.670Z,19.3
2019-03-20T06:18:54.730Z,19.32
2019-03-20T06:20:54.766Z,19.3
2019-03-20T06:21:54.953Z,19.3
2019-03-20T06:22:54.787Z,19.33
2019-03-20T06:23:55.911Z,19.32
2019-03-20T06:25:54.957Z,19.32
2019-03-20T06:26:54.909Z,19.29
2019-03-20T06:28:54.839Z,19.27
2019-03-20T06:29:54.883Z,19.33
2019-03-20T06:30:54.921Z,19.3
2019-03-20T06:32:54.805Z,19.3
2019-03-20T06:33:54.794Z,19.29
2019-03-20T06:34:54.727Z,19.33
2019-03-20T06:35:54.701Z,19.3
2019-03-20T06:37:54.784Z,19.3
2019-03-20T06:38:54.836Z,19.29
2019-03-20T06:39:54.780Z,19.3
2019-03-20T06:40:54.787Z,19.27
2019-03-20T06:42:55.726Z,19.3
2019-03-20T06:43:54.800Z,19.3
2019-03-20T06:44:54.787Z,19.29
2019-03-20T06:45:54.920Z,19.26
2019-03-20T06:47:54.850Z,19.03
2019-03-20T06:48:54.989Z,18.88
2019-03-20T06:49:54.874Z,18.78
2019-03-20T06:50:55.738Z,18.73
2019-03-20T06:52:54.659Z,18.74
2019-03-20T06:54:55.050Z,18.78
2019-03-20T06:55:54.700Z,18.84
2019-03-20T06:56:54.706Z,18.85
2019-03-20T06:58:54.799Z,18.92
2019-03-20T06:59:54.722Z,18.92
2019-03-20T07:00:54.800Z,18.95
2019-03-20T07:01:54.762Z,18.99
2019-03-20T07:04:54.855Z,19.05
2019-03-20T07:05:54.807Z,19.06
2019-03-20T07:06:54.821Z,19.06
2019-03-20T07:07:54.845Z,19.06
2019-03-20T07:10:54.623Z,19.08
2019-03-20T07:12:54.750Z,19.09
2019-03-20T07:13:54.691Z,19.09
2019-03-20T07:14:54.732Z,19.12
2019-03-20T07:15:54.758Z,19.12
2019-03-20T07:18:54.766Z,19.13
2019-03-20T07:19:54.749Z,19.15
2019-03-20T07:20:54.807Z,19.13
2019-03-20T07:21:54.774Z,19.18
2019-03-20T07:23:54.885Z,19.19
2019-03-20T07:24:54.918Z,19.18
2019-03-20T07:25:55.103Z,19.22
2019-03-20T07:26:54.973Z,19.19
2019-03-20T07:28:54.643Z,19.23
2019-03-20T07:30:54.626Z,19.25
2019-03-20T07:31:55.797Z,19.25
2019-03-20T07:32:54.824Z,19.27
2019-03-20T07:33:54.676Z,19.29
2019-03-20T07:35:54.695Z,19.29
2019-03-20T07:36:54.863Z,19.29
2019-03-20T07:37:56.809Z,19.3
2019-03-20T07:39:54.941Z,19.32
2019-03-20T07:40:54.849Z,19.35
2019-03-20T07:41:54.773Z,19.35
2019-03-20T07:44:55.114Z,19.33
2019-03-20T07:45:54.857Z,19.36
2019-03-20T07:46:54.976Z,19.36
2019-03-20T07:47:54.898Z,19.37
2019-03-20T07:49:54.731Z,19.4
2019-03-20T07:50:54.706Z,19.39
2019-03-20T07:51:54.691Z,19.4
2019-03-20T07:52:54.679Z,19.4
2019-03-20T07:54:55.094Z,19.42
2019-03-20T07:55:54.744Z,19.4
2019-03-20T07:56:54.826Z,19.42
2019-03-20T07:57:54.827Z,19.4
2019-03-20T07:59:54.828Z,19.42
2019-03-20T08:00:54.822Z,19.4
2019-03-20T08:02:54.796Z,19.42
2019-03-20T08:03:54.827Z,19.42
2019-03-20T08:04:54.844Z,19.45
2019-03-20T08:05:54.868Z,19.43
2019-03-20T08:07:54.567Z,19.43
2019-03-20T08:08:54.598Z,19.46
2019-03-20T08:09:54.615Z,19.4
2019-03-20T08:10:54.647Z,19.43
2019-03-20T08:12:54.652Z,19.43
2019-03-20T08:14:54.755Z,19.43
2019-03-20T08:15:54.806Z,19.42
2019-03-20T08:16:54.874Z,19.43
2019-03-20T08:17:54.683Z,19.45
2019-03-20T08:19:54.796Z,19.43
2019-03-20T08:20:54.892Z,19.46
2019-03-20T08:21:54.750Z,19.45
2019-03-20T08:22:54.778Z,19.45
2019-03-20T08:24:56.136Z,19.43
2019-03-20T08:25:54.963Z,19.45
2019-03-20T08:26:54.940Z,19.46
2019-03-20T08:28:54.838Z,19.43
2019-03-20T08:29:54.653Z,19.43
2019-03-20T08:30:54.728Z,19.45
2019-03-20T08:31:54.659Z,19.45
2019-03-20T08:34:54.800Z,19.43
2019-03-20T08:35:54.676Z,19.43
2019-03-20T08:36:55.044Z,19.43
2019-03-20T08:37:54.727Z,19.43
2019-03-20T08:40:54.786Z,19.43
2019-03-20T08:41:54.783Z,19.43
2019-03-20T08:42:55.149Z,19.43
2019-03-20T08:43:54.823Z,19.42
2019-03-20T08:45:54.935Z,19.42
2019-03-20T08:46:54.807Z,19.43
2019-03-20T08:47:54.949Z,19.42
2019-03-20T08:48:54.609Z,19.43
2019-03-20T08:50:54.705Z,19.4
2019-03-20T08:51:54.703Z,19.4
2019-03-20T08:53:56.635Z,19.43
2019-03-20T08:54:54.679Z,19.43
2019-03-20T08:55:54.651Z,19.45
2019-03-20T08:56:54.680Z,19.42
2019-03-20T08:58:54.863Z,19.47
2019-03-20T08:59:54.755Z,19.47
2019-03-20T09:00:54.741Z,19.5
2019-03-20T09:02:55.501Z,19.53
2019-03-20T09:04:55.054Z,19.5
2019-03-20T09:05:54.843Z,19.5
2019-03-20T09:06:54.832Z,19.52
2019-03-20T09:07:54.968Z,19.53
2019-03-20T09:09:54.608Z,19.56
2019-03-20T09:10:54.642Z,19.57
2019-03-20T09:11:54.663Z,19.57
2019-03-20T09:12:54.747Z,19.57
2019-03-20T09:14:54.769Z,19.57
2019-03-20T09:15:54.708Z,19.57
2019-03-20T09:16:54.826Z,19.57
2019-03-20T09:17:54.749Z,19.58
2019-03-20T09:19:54.735Z,19.63
2019-03-20T09:20:54.766Z,19.63
2019-03-20T09:21:54.855Z,19.61
2019-03-20T09:22:55.268Z,19.65
2019-03-20T09:24:54.846Z,19.64
2019-03-20T09:25:54.834Z,19.64
2019-03-20T09:27:54.575Z,19.64
2019-03-20T09:28:54.662Z,19.64
2019-03-20T09:29:54.610Z,19.64
2019-03-20T09:31:54.637Z,19.65
2019-03-20T09:32:54.630Z,19.67
2019-03-20T09:33:55.880Z,19.7
2019-03-20T09:34:55.114Z,19.7
2019-03-20T09:36:54.681Z,19.73
2019-03-20T09:37:54.796Z,19.68
2019-03-20T09:38:54.834Z,19.74
2019-03-20T09:39:54.816Z,19.71
2019-03-20T09:41:54.778Z,19.71
2019-03-20T09:42:54.985Z,19.71
2019-03-20T09:43:55.170Z,19.71
2019-03-20T09:44:54.780Z,19.71
2019-03-20T09:46:54.813Z,19.7
2019-03-20T09:48:54.680Z,19.71
2019-03-20T09:50:54.747Z,19.68
2019-03-20T09:51:54.992Z,19.67
2019-03-20T09:52:54.725Z,19.68
2019-03-20T09:53:54.669Z,19.7
2019-03-20T09:55:54.677Z,19.7
2019-03-20T09:56:54.781Z,19.71
2019-03-20T09:57:54.724Z,19.73
2019-03-20T09:59:54.745Z,19.73
2019-03-20T10:00:54.765Z,19.73
2019-03-20T10:01:54.922Z,19.73
2019-03-20T10:02:54.888Z,19.71
2019-03-20T10:04:54.907Z,19.73
2019-03-20T10:05:54.933Z,19.74
2019-03-20T10:07:54.639Z,19.75
2019-03-20T10:08:54.925Z,19.75
2019-03-20T10:09:54.609Z,19.75
2019-03-20T10:10:54.610Z,19.75
2019-03-20T10:12:54.829Z,19.75
2019-03-20T10:13:54.648Z,19.77
2019-03-20T10:15:54.669Z,19.78
2019-03-20T10:16:54.705Z,19.77
2019-03-20T10:17:54.730Z,19.78
2019-03-20T10:20:54.841Z,19.78
2019-03-20T10:21:54.840Z,19.78
2019-03-20T10:22:54.824Z,19.78
2019-03-20T10:23:54.853Z,19.78
2019-03-20T10:25:54.822Z,19.8
2019-03-20T10:26:54.559Z,19.8
2019-03-20T10:27:55.086Z,19.78
2019-03-20T10:28:54.694Z,19.78
2019-03-20T10:30:54.720Z,19.78
2019-03-20T10:31:54.704Z,19.8
2019-03-20T10:32:54.673Z,19.77
2019-03-20T10:34:54.730Z,19.78
2019-03-20T10:36:54.740Z,19.75
2019-03-20T10:37:54.819Z,19.77
2019-03-20T10:39:07.481Z,19.77
2019-03-20T10:39:54.781Z,19.74
2019-03-20T10:42:54.910Z,19.75
2019-03-20T10:43:54.548Z,19.78
2019-03-20T10:44:54.567Z,19.77
2019-03-20T10:46:54.608Z,19.73
2019-03-20T10:48:56.836Z,19.74
2019-03-20T10:49:54.743Z,19.75
2019-03-20T10:50:54.681Z,19.75
2019-03-20T10:51:54.794Z,19.73
2019-03-20T10:53:54.701Z,19.74
2019-03-20T10:54:54.710Z,19.71
2019-03-20T10:55:54.898Z,19.73
2019-03-20T10:56:54.807Z,19.73
2019-03-20T10:58:54.781Z,19.71
2019-03-20T10:59:54.809Z,19.68
2019-03-20T11:00:54.891Z,19.68
2019-03-20T11:02:54.622Z,19.7
2019-03-20T11:03:54.608Z,19.68
2019-03-20T11:04:54.582Z,19.68
2019-03-20T11:05:54.645Z,19.67
2019-03-20T11:07:54.770Z,19.67
2019-03-20T11:09:54.753Z,19.65
2019-03-20T11:10:54.897Z,19.65
2019-03-20T11:11:54.743Z,19.64
2019-03-20T11:12:54.820Z,19.67
2019-03-20T11:14:54.874Z,19.63
2019-03-20T11:15:54.833Z,19.64
2019-03-20T11:16:54.814Z,19.63
2019-03-20T11:17:54.855Z,19.63
2019-03-20T11:19:56.590Z,19.63
2019-03-20T11:20:54.567Z,19.63
2019-03-20T11:22:54.598Z,19.57
2019-03-20T11:23:54.617Z,19.61
2019-03-20T11:24:54.592Z,19.61
2019-03-20T11:25:54.787Z,19.6
2019-03-20T11:27:54.701Z,19.6
2019-03-20T11:28:54.654Z,19.61
2019-03-20T11:29:54.661Z,19.61
2019-03-20T11:30:54.680Z,19.61
2019-03-20T11:32:55.111Z,19.64
2019-03-20T11:33:54.835Z,19.64
2019-03-20T11:34:54.746Z,19.65
2019-03-20T11:35:54.923Z,19.65
2019-03-20T11:37:54.571Z,19.68
2019-03-20T11:38:54.644Z,19.68
2019-03-20T11:39:54.715Z,19.68
2019-03-20T11:40:54.597Z,19.7
2019-03-20T11:42:54.636Z,19.74
2019-03-20T11:43:54.636Z,19.73
2019-03-20T11:44:54.679Z,19.74
2019-03-20T11:45:54.802Z,19.73
2019-03-20T11:47:54.688Z,19.74
2019-03-20T11:48:54.708Z,19.73
2019-03-20T11:49:54.776Z,19.74
2019-03-20T11:50:54.723Z,19.73
2019-03-20T11:52:58.321Z,19.7
2019-03-20T11:53:54.822Z,19.7
2019-03-20T11:55:54.611Z,19.67
2019-03-20T11:56:54.589Z,19.68
2019-03-20T11:57:54.585Z,19.7
2019-03-20T11:58:54.756Z,19.68
2019-03-20T12:00:54.671Z,19.7
2019-03-20T12:01:54.625Z,19.68
2019-03-20T12:02:54.631Z,19.71
2019-03-20T12:03:54.826Z,19.68
2019-03-20T12:05:54.686Z,19.68
2019-03-20T12:06:54.694Z,19.67
2019-03-20T12:08:54.813Z,19.73
2019-03-20T12:10:54.776Z,19.73
2019-03-20T12:11:54.887Z,19.73
2019-03-20T12:12:54.590Z,19.74
2019-03-20T12:13:54.655Z,19.77
2019-03-20T12:15:54.704Z,19.74
2019-03-20T12:16:54.596Z,19.74
2019-03-20T12:17:54.606Z,19.73
2019-03-20T12:18:54.633Z,19.75
2019-03-20T12:20:54.647Z,19.75
2019-03-20T12:21:54.690Z,19.74
2019-03-20T12:22:54.710Z,19.77
2019-03-20T12:23:54.672Z,19.78
2019-03-20T12:25:54.725Z,19.78
2019-03-20T12:26:54.740Z,19.77
2019-03-20T12:28:54.883Z,19.75
2019-03-20T12:29:54.504Z,19.8
2019-03-20T12:31:54.526Z,19.8
2019-03-20T12:33:54.574Z,19.78
2019-03-20T12:35:54.602Z,19.77
2019-03-20T12:36:56.959Z,19.75
2019-03-20T12:37:54.994Z,19.77
2019-03-20T12:38:54.648Z,19.78
2019-03-20T12:40:54.656Z,19.78
2019-03-20T12:41:54.671Z,19.8
2019-03-20T12:42:54.703Z,19.8
2019-03-20T12:43:54.715Z,19.77
2019-03-20T12:46:54.753Z,19.74
2019-03-20T12:47:54.614Z,19.75
2019-03-20T12:48:54.561Z,19.77
2019-03-20T12:49:54.699Z,19.77
2019-03-20T12:51:54.684Z,19.78
2019-03-20T12:52:54.605Z,19.75
2019-03-20T12:54:54.715Z,19.75
2019-03-20T12:55:54.731Z,19.77
2019-03-20T12:56:54.670Z,19.75
2019-03-20T12:57:54.676Z,19.75
2019-03-20T12:59:54.681Z,19.74
2019-03-20T13:00:54.941Z,19.73
2019-03-20T13:01:54.820Z,19.75
2019-03-20T13:03:54.495Z,19.74
2019-03-20T13:04:54.506Z,19.74
2019-03-20T13:05:54.611Z,19.74
2019-03-20T13:06:54.554Z,19.71
2019-03-20T13:08:54.609Z,19.71
2019-03-20T13:10:04.159Z,19.73
2019-03-20T13:10:54.575Z,19.73
2019-03-20T13:11:54.673Z,19.74
2019-03-20T13:13:54.662Z,19.73
2019-03-20T13:14:54.665Z,19.71
2019-03-20T13:15:54.653Z,19.7
2019-03-20T13:17:54.697Z,19.73
2019-03-20T13:18:54.684Z,19.71
2019-03-20T13:19:54.716Z,19.7
2019-03-20T13:20:54.692Z,19.73
2019-03-20T13:22:54.512Z,19.7
2019-03-20T13:23:54.512Z,19.7
2019-03-20T13:24:54.627Z,19.68
2019-03-20T13:26:54.594Z,19.67
2019-03-20T13:27:54.574Z,19.71
2019-03-20T13:28:54.725Z,19.71
2019-03-20T13:29:54.769Z,19.7
2019-03-20T13:32:54.803Z,19.68
2019-03-20T13:33:54.669Z,19.67
2019-03-20T13:34:54.903Z,19.67
2019-03-20T13:35:54.723Z,19.67
2019-03-20T13:37:54.850Z,19.7
2019-03-20T13:38:56.843Z,19.68
2019-03-20T13:39:54.494Z,19.68
2019-03-20T13:40:54.664Z,19.71
2019-03-20T13:42:54.661Z,19.73
2019-03-20T13:43:54.532Z,19.71
2019-03-20T13:44:54.588Z,19.75
2019-03-20T13:45:54.586Z,19.75
2019-03-20T13:48:54.703Z,19.78
2019-03-20T13:49:54.604Z,19.78
2019-03-20T13:51:54.682Z,19.8
2019-03-20T13:53:54.717Z,19.82
2019-03-20T13:54:54.688Z,19.82
2019-03-20T13:55:54.730Z,19.82
2019-03-20T13:56:54.725Z,19.82
2019-03-20T13:58:54.531Z,19.85
2019-03-20T13:59:54.556Z,19.85
2019-03-20T14:00:54.581Z,19.84
2019-03-20T14:01:54.581Z,19.85
2019-03-20T14:03:54.702Z,19.88
2019-03-20T14:04:54.644Z,19.88
2019-03-20T14:05:54.639Z,19.91
2019-03-20T14:06:54.640Z,19.91
2019-03-20T14:08:54.742Z,19.93
2019-03-20T14:09:54.675Z,19.92
2019-03-20T14:10:54.746Z,19.92
2019-03-20T14:12:54.765Z,19.93
2019-03-20T14:13:54.712Z,19.95
2019-03-20T14:14:54.738Z,19.96
2019-03-20T14:17:54.552Z,19.96
2019-03-20T14:18:54.524Z,19.96
2019-03-20T14:19:54.610Z,19.95
2019-03-20T14:20:54.713Z,19.93
2019-03-20T14:22:54.609Z,19.98
2019-03-20T14:23:54.777Z,19.96
2019-03-20T14:24:54.638Z,19.96
2019-03-20T14:25:55.060Z,19.98
2019-03-20T14:27:54.680Z,19.99
2019-03-20T14:28:54.659Z,19.98
2019-03-20T14:30:54.677Z,20.04
2019-03-20T14:31:54.695Z,20.04
2019-03-20T14:32:54.519Z,20.04
2019-03-20T14:33:54.519Z,20.04
2019-03-20T14:36:54.570Z,20.04
2019-03-20T14:37:55.284Z,20.05
2019-03-20T14:38:54.701Z,20.04
2019-03-20T14:39:54.620Z,20.04
2019-03-20T14:41:54.608Z,20.05
2019-03-20T14:42:54.910Z,20.05
2019-03-20T14:43:54.722Z,20.04
2019-03-20T14:44:54.796Z,20.04
2019-03-20T14:46:55.016Z,20.02
2019-03-20T14:48:54.764Z,20.04
2019-03-20T14:49:54.727Z,20.02
2019-03-20T14:52:54.609Z,20.05
2019-03-20T14:53:54.492Z,20.04
2019-03-20T14:55:54.555Z,20.04
2019-03-20T14:56:54.514Z,20.07
2019-03-20T14:57:54.563Z,20.04
2019-03-20T14:58:54.608Z,20.04
2019-03-20T15:00:54.616Z,20.05
2019-03-20T15:02:54.750Z,20.04
2019-03-20T15:03:54.662Z,20.04
2019-03-20T15:04:54.643Z,20.04
2019-03-20T15:05:54.698Z,20.05
2019-03-20T15:07:54.706Z,20.07
2019-03-20T15:08:54.596Z,20.05
2019-03-20T15:09:54.523Z,20.05
2019-03-20T15:10:54.534Z,20.07
2019-03-20T15:13:54.695Z,20.07
2019-03-20T15:14:54.685Z,20.05
2019-03-20T15:15:54.621Z,20.05
2019-03-20T15:16:54.682Z,20.05
2019-03-20T15:18:54.735Z,20.08
2019-03-20T15:19:54.681Z,20.08
2019-03-20T15:21:54.659Z,20.07
2019-03-20T15:22:54.705Z,20.07
2019-03-20T15:23:54.701Z,20.09
2019-03-20T15:24:54.738Z,20.08
2019-03-20T15:26:54.479Z,20.08
2019-03-20T15:27:54.589Z,20.08
2019-03-20T15:28:54.614Z,20.08
2019-03-20T15:29:54.666Z,20.09
2019-03-20T15:31:54.703Z,20.08
2019-03-20T15:32:54.539Z,20.08
2019-03-20T15:33:54.559Z,20.05
2019-03-20T15:35:54.596Z,20.05
2019-03-20T15:36:54.594Z,20.05
2019-03-20T15:37:54.749Z,20.08
2019-03-20T15:38:54.787Z,20.05
2019-03-20T15:40:56.737Z,20.07
2019-03-20T15:42:54.503Z,20.07
2019-03-20T15:44:03.012Z,20.07
2019-03-20T15:44:54.647Z,20.08
2019-03-20T15:45:54.552Z,20.08
2019-03-20T15:47:54.599Z,20.07
2019-03-20T15:48:54.666Z,20.07
2019-03-20T15:49:54.448Z,20.09
2019-03-20T15:50:54.598Z,20.07
2019-03-20T15:52:54.785Z,20.07
2019-03-20T15:53:54.641Z,20.07
2019-03-20T15:54:54.719Z,20.05
2019-03-20T15:57:54.432Z,20.07
2019-03-20T15:58:54.682Z,20.08
2019-03-20T15:59:54.465Z,20.08
2019-03-20T16:00:54.461Z,20.07
2019-03-20T16:03:54.434Z,20.07
2019-03-20T16:04:54.505Z,20.05
2019-03-20T16:05:54.548Z,20.07
2019-03-20T16:06:54.565Z,20.07
2019-03-20T16:08:57.288Z,20.05
2019-03-20T16:09:54.550Z,20.07
2019-03-20T16:11:54.436Z,20.07
2019-03-20T16:14:54.945Z,20.07
2019-03-20T16:15:54.654Z,20.07
2019-03-20T16:16:54.689Z,20.04
2019-03-20T16:17:54.687Z,20.05
2019-03-20T16:19:56.767Z,20.08
2019-03-20T16:20:54.518Z,20.09
2019-03-20T16:22:54.523Z,20.08
2019-03-20T16:23:54.560Z,20.07
2019-03-20T16:24:54.647Z,20.08
2019-03-20T16:25:54.576Z,20.05
2019-03-20T16:28:54.607Z,20.07
2019-03-20T16:29:54.622Z,20.05
2019-03-20T16:30:54.751Z,20.05
2019-03-20T16:31:54.805Z,20.07
2019-03-20T16:33:54.688Z,20.05
2019-03-20T16:34:54.669Z,20.04
2019-03-20T16:36:54.620Z,20.04
2019-03-20T16:37:54.616Z,20.05
2019-03-20T16:38:54.492Z,20.02
2019-03-20T16:39:54.490Z,20.02
2019-03-20T16:41:54.630Z,20.07
2019-03-20T16:42:54.529Z,20.04
2019-03-20T16:43:54.558Z,20.04
2019-03-20T16:45:54.570Z,20.05
2019-03-20T16:46:54.565Z,20.04
2019-03-20T16:49:54.671Z,20.04
2019-03-20T16:50:54.609Z,20.05
2019-03-20T16:51:54.706Z,20.07
2019-03-20T16:53:54.536Z,20.08
2019-03-20T16:54:54.500Z,20.09
2019-03-20T16:55:54.502Z,20.08
2019-03-20T16:57:54.801Z,20.08
2019-03-20T16:59:54.563Z,20.08
2019-03-20T17:01:54.527Z,20.08
2019-03-20T17:02:54.654Z,20.08
2019-03-20T17:03:54.592Z,20.09
2019-03-20T17:04:54.585Z,20.09
2019-03-20T17:06:54.671Z,20.11
2019-03-20T17:07:54.647Z,20.08
2019-03-20T17:09:54.679Z,20.07
2019-03-20T17:10:54.672Z,20.11
2019-03-20T17:11:54.620Z,20.07
2019-03-20T17:12:54.422Z,20.07
2019-03-20T17:16:54.463Z,20.07
2019-03-20T17:17:54.493Z,20.08
2019-03-20T17:18:55.873Z,20.08
2019-03-20T17:19:54.639Z,20.07
2019-03-20T17:22:54.570Z,20.07
2019-03-20T17:23:54.580Z,20.08
2019-03-20T17:24:54.671Z,20.08
2019-03-20T17:26:54.547Z,20.05
2019-03-20T17:27:54.786Z,20.04
2019-03-20T17:28:54.620Z,20.05
2019-03-20T17:29:54.646Z,20.04
2019-03-20T17:31:54.735Z,20.02
2019-03-20T17:32:54.448Z,20.01
2019-03-20T17:33:54.462Z,20.04
2019-03-20T17:34:54.598Z,20.02
2019-03-20T17:35:54.494Z,20.04
2019-03-20T17:37:54.482Z,20.04
2019-03-20T17:39:54.683Z,20.05
2019-03-20T17:40:54.893Z,20.07
2019-03-20T17:41:54.673Z,20.05
2019-03-20T17:42:54.588Z,20.07
2019-03-20T17:44:54.439Z,20.07
2019-03-20T17:45:54.680Z,20.05
2019-03-20T17:47:54.766Z,20.02
2019-03-20T17:49:54.799Z,20.05
2019-03-20T17:50:54.560Z,20.07
2019-03-20T17:51:54.475Z,20.05
2019-03-20T17:52:54.501Z,20.07
2019-03-20T17:54:54.487Z,20.05
2019-03-20T17:55:54.508Z,20.05
2019-03-20T17:56:54.557Z,20.07
2019-03-20T17:57:54.547Z,20.08
2019-03-20T17:59:54.564Z,20.07
2019-03-20T18:00:54.644Z,20.07
2019-03-20T18:01:54.578Z,20.05
2019-03-20T18:02:54.788Z,20.05
2019-03-20T18:04:54.737Z,20.07
2019-03-20T18:05:54.631Z,20.11
2019-03-20T18:06:54.580Z,20.08
2019-03-20T18:07:54.483Z,20.07
2019-03-20T18:09:54.512Z,20.09
2019-03-20T18:11:54.515Z,20.11
2019-03-20T18:12:54.595Z,20.11
2019-03-20T18:13:54.549Z,20.11
2019-03-20T18:14:54.569Z,20.11
2019-03-20T18:16:54.753Z,20.12
2019-03-20T18:17:54.421Z,20.09
2019-03-20T18:18:54.660Z,20.09
2019-03-20T18:19:54.671Z,20.12
2019-03-20T18:21:54.720Z,20.08
2019-03-20T18:22:54.651Z,20.08
2019-03-20T18:24:54.895Z,20.09
2019-03-20T18:25:54.589Z,20.08
2019-03-20T18:26:54.497Z,20.05
2019-03-20T18:28:54.497Z,20.05
2019-03-20T18:29:54.374Z,20.05
2019-03-20T18:30:54.609Z,20.07
2019-03-20T18:31:54.570Z,20.07
2019-03-20T18:33:54.509Z,20.08
2019-03-20T18:34:54.565Z,20.07
2019-03-20T18:35:54.651Z,20.08
2019-03-20T18:36:54.527Z,20.08
2019-03-20T18:37:54.637Z,20.05
2019-03-20T18:39:54.610Z,20.07
2019-03-20T18:40:54.984Z,20.08
2019-03-20T18:41:58.323Z,20.05
2019-03-20T18:42:54.540Z,20.05
2019-03-20T18:44:54.515Z,20.05
2019-03-20T18:45:54.504Z,20.07
2019-03-20T18:46:54.572Z,20.04
2019-03-20T18:47:54.570Z,20.02
2019-03-20T18:50:54.654Z,20.02
2019-03-20T18:51:54.558Z,20.01